Time;durP1;ratioP1;P1;durP2;ratioP2;P2;SDS_P1;SDS_P2;PMS_P1;PMS_P2;Temp;Humidity;BMP_temperature;BMP_pressure;BME280_temperature;BME280_humidity;BME280_pressure;Samples;Min_cycle;Max_cycle;Signal;HPM_P1;HPM_P2
2021/11/24 00:00:03;;;;;;;;;;;;;;;-144.99;100.00;52527.59;5066200;28;20009;-59
2021/11/24 00:02:31;;;;;;;;;;;;;;;-144.99;100.00;52566.31;5071072;28;20083;-59
2021/11/24 00:04:57;;;;;;;;;;;;;;;-144.99;100.00;52566.31;5064090;28;20341;-59
2021/11/24 00:07:24;;;;;;;;;;;;;;;-144.99;100.00;52562.25;5066539;28;19973;-59
2021/11/24 00:09:50;;;;;;;;;;;;;;;-144.99;100.00;52586.69;5064744;28;19980;-60
2021/11/24 00:12:17;;;;;;;;;;;;;;;-144.99;100.00;52554.09;5068299;28;19980;-60
2021/11/24 00:14:43;;;;;;;;;;;;;;;-144.99;100.00;52529.63;5066673;28;20001;-61
2021/11/24 00:17:10;;;;;;;;;;;;;;;-144.99;100.00;52566.31;5065585;28;20019;-60
2021/11/24 00:19:38;;;;;;;;;;;;;;;-144.99;100.00;52545.94;5065950;28;19976;-60
2021/11/24 00:22:04;;;;;;;;;;;;;;;-144.99;100.00;52541.84;5066766;28;19974;-61
2021/11/24 00:24:31;;;;;;;;;;;;;;;-144.99;100.00;52537.78;5067801;28;20373;-61
2021/11/24 00:26:57;;;;;;;;;;;;;;;-144.99;100.00;52568.34;5070828;28;19977;-60
2021/11/24 00:29:24;;;;;;;;;;;;;;;-144.99;100.00;52517.41;5068318;28;19973;-61
2021/11/24 00:31:50;;;;;;;;;;;;;;;-144.99;100.00;52566.31;5071352;28;19973;-61
2021/11/24 00:34:17;;;;;;;;;;;;;;;-144.99;100.00;52554.09;5069511;28;19996;-61
2021/11/24 00:36:45;;;;;;;;;;;;;;;-144.99;100.00;52537.78;5068858;28;19981;-60
2021/11/24 00:39:11;;;;;;;;;;;;;;;-144.99;100.00;52513.31;5064127;28;20014;-61
2021/11/24 00:41:38;;;;;;;;;;;;;;;-144.99;100.00;52539.81;5067683;28;19973;-61
2021/11/24 00:44:04;;;;;;;;;;;;;;;-144.99;100.00;52562.25;5070643;28;20042;-60
2021/11/24 00:46:31;;;;;;;;;;;;;;;-144.99;100.00;52598.94;5065823;28;20037;-60
2021/11/24 00:48:57;;;;;;;;;;;;;;;-144.99;100.00;52554.09;5062367;28;19977;-60
2021/11/24 00:51:24;;;;;;;;;;;;;;;-144.99;100.00;52517.41;5068970;28;20007;-59
2021/11/24 00:53:52;;;;;;;;;;;;;;;-144.99;100.00;52554.09;5064615;28;20525;-59
2021/11/24 00:56:19;;;;;;;;;;;;;;;-144.99;100.00;52568.34;5063275;28;20058;-59
2021/11/24 00:58:46;;;;;;;;;;;;;;;-144.99;100.00;52545.94;5062514;28;20071;-60
2021/11/24 01:01:12;;;;;;;;;;;;;;;-144.99;100.00;52541.84;5065987;28;20008;-60
2021/11/24 01:03:39;;;;;;;;;;;;;;;-144.99;100.00;52505.16;5063641;28;20034;-59
2021/11/24 01:06:05;;;;;;;;;;;;;;;-144.99;100.00;52513.31;5062398;28;20015;-61
2021/11/24 01:08:32;;;;;;;;;;;;;;;-144.99;100.00;52523.50;5067614;28;19976;-61
2021/11/24 01:11:00;;;;;;;;;;;;;;;-144.99;100.00;52550.00;5070757;28;20108;-59
2021/11/24 01:13:27;;;;;;;;;;;;;;;-144.99;100.00;52566.31;5067402;28;20005;-60
2021/11/24 01:15:54;;;;;;;;;;;;;;;-144.99;100.00;52545.94;5069918;28;19989;-57
2021/11/24 01:18:21;;;;;;;;;;;;;;;-144.99;100.00;52586.69;5063038;28;19977;-59
2021/11/24 01:20:48;;;;;;;;;;;;;;;-144.99;100.00;52545.94;5069755;28;19972;-60
2021/11/24 01:23:15;;;;;;;;;;;;;;;-144.99;100.00;52550.00;5059332;28;20032;-59
2021/11/24 01:25:41;;;;;;;;;;;;;;;-144.99;100.00;52566.31;5068380;28;20009;-59
2021/11/24 01:28:09;;;;;;;;;;;;;;;-144.99;100.00;52541.84;5061824;28;19973;-59
2021/11/24 01:30:36;;;;;;;;;;;;;;;-144.99;100.00;52562.25;5066493;28;19977;-60
2021/11/24 01:33:02;;;;;;;;;;;;;;;-144.99;100.00;52554.09;5064605;28;20342;-59
2021/11/24 01:35:29;;;;;;;;;;;;;;;-144.99;100.00;52570.38;5066037;28;20046;-58
2021/11/24 01:37:55;;;;;;;;;;;;;;;-144.99;100.00;52554.09;5066344;28;19984;-58
2021/11/24 01:40:22;;;;;;;;;;;;;;;-144.99;100.00;52509.25;5066054;28;20026;-58
2021/11/24 01:42:48;;;;;;;;;;;;;;;-144.99;100.00;52529.63;5068855;28;20346;-57
2021/11/24 01:45:17;;;;;;;;;;;;;;;-144.99;100.00;52529.63;5065132;28;19980;-57
2021/11/24 01:47:44;;;;;;;;;;;;;;;-144.99;100.00;52537.78;5067316;28;19973;-58
2021/11/24 01:50:11;;;;;;;;;;;;;;;-144.99;100.00;52525.56;5062333;28;20019;-58
2021/11/24 01:52:38;;;;;;;;;;;;;;;-144.99;100.00;52537.78;5065496;28;20014;-58
2021/11/24 01:55:06;;;;;;;;;;;;;;;-144.99;100.00;52533.69;5066584;28;19989;-58
2021/11/24 01:57:33;;;;;;;;;;;;;;;-144.99;100.00;52529.63;5064603;28;19981;-57
2021/11/24 01:59:59;;;;;;;;;;;;;;;-144.99;100.00;52507.19;5063578;28;19973;-56
2021/11/24 02:02:28;;;;;;;;;;;;;;;-144.99;100.00;52568.34;5069639;28;19969;-57
2021/11/24 02:04:54;;;;;;;;;;;;;;;-144.99;100.00;52550.00;5062374;28;20491;-58
2021/11/24 02:07:21;;;;;;;;;;;;;;;-144.99;100.00;52484.78;5066048;28;19973;-57
2021/11/24 02:09:48;;;;;;;;;;;;;;;-144.99;100.00;52537.78;5065515;28;20024;-57
2021/11/24 02:12:15;;;;;;;;;;;;;;;-144.99;100.00;52545.94;5060453;28;19973;-57
2021/11/24 02:14:42;;;;;;;;;;;;;;;-144.99;100.00;52562.25;5057819;28;20539;-58
2021/11/24 02:17:11;;;;;;;;;;;;;;;-144.99;100.00;52558.16;5067219;28;20014;-59
2021/11/24 02:19:38;;;;;;;;;;;;;;;-144.99;100.00;52554.09;5068112;28;20036;-59
2021/11/24 02:22:06;;;;;;;;;;;;;;;-144.99;100.00;52537.78;5063944;28;19973;-58
2021/11/24 02:24:34;;;;;;;;;;;;;;;-144.99;100.00;52537.78;5064089;28;20475;-58
2021/11/24 02:27:01;;;;;;;;;;;;;;;-144.99;100.00;52521.47;5064579;28;19985;-58
2021/11/24 02:29:28;;;;;;;;;;;;;;;-144.99;100.00;52533.69;5067501;28;20054;-58
2021/11/24 02:31:57;;;;;;;;;;;;;;;-144.99;100.00;52509.25;5061535;28;20012;-58
2021/11/24 02:34:24;;;;;;;;;;;;;;;-144.99;100.00;52517.41;5063551;28;20152;-58
2021/11/24 02:36:51;;;;;;;;;;;;;;;-144.99;100.00;52586.69;5070823;28;19989;-59
2021/11/24 02:39:19;;;;;;;;;;;;;;;-144.99;100.00;52554.09;5072379;28;20034;-59
2021/11/24 02:41:45;;;;;;;;;;;;;;;-144.99;100.00;52556.13;5072468;28;20027;-58
2021/11/24 02:44:16;;;;;;;;;;;;;;;-144.99;100.00;52525.56;5061228;28;19989;-58
2021/11/24 02:46:42;;;;;;;;;;;;;;;-144.99;100.00;52537.78;5063318;28;20322;-58
2021/11/24 02:49:09;;;;;;;;;;;;;;;-144.99;100.00;52537.78;5066343;28;19972;-58
2021/11/24 02:51:36;;;;;;;;;;;;;;;-144.99;100.00;52533.69;5069920;28;20030;-58
2021/11/24 02:54:02;;;;;;;;;;;;;;;-144.99;100.00;52552.03;5067770;28;19989;-58
2021/11/24 02:56:30;;;;;;;;;;;;;;;-144.99;100.00;52541.84;5067265;28;19996;-58
2021/11/24 02:58:57;;;;;;;;;;;;;;;-144.99;100.00;52533.69;5066444;28;19977;-59
2021/11/24 03:01:23;;;;;;;;;;;;;;;-144.99;100.00;52556.13;5067638;28;19973;-59
2021/11/24 03:03:50;;;;;;;;;;;;;;;-144.99;100.00;52511.28;5068645;28;19993;-58
2021/11/24 03:06:16;;;;;;;;;;;;;;;-144.99;100.00;52537.78;5066456;28;20046;-61
2021/11/24 03:08:43;;;;;;;;;;;;;;;-144.99;100.00;52558.16;5072161;28;19973;-60
2021/11/24 03:11:09;;;;;;;;;;;;;;;-144.99;100.00;52519.44;5066788;28;19973;-61
2021/11/24 03:13:37;;;;;;;;;;;;;;;-144.99;100.00;52582.63;5069442;28;19989;-60
2021/11/24 03:16:04;;;;;;;;;;;;;;;-144.99;100.00;52582.63;5065332;28;20538;-58
2021/11/24 03:18:31;;;;;;;;;;;;;;;-144.99;100.00;52521.47;5066061;28;20027;-59
2021/11/24 03:20:57;;;;;;;;;;;;;;;-144.99;100.00;52537.78;5068555;28;19973;-62
2021/11/24 03:23:24;;;;;;;;;;;;;;;-144.99;100.00;52525.56;5064607;28;20029;-62
2021/11/24 03:25:50;;;;;;;;;;;;;;;-144.99;100.00;52537.78;5069945;28;19977;-62
2021/11/24 03:28:17;;;;;;;;;;;;;;;-144.99;100.00;52578.53;5063849;28;19973;-62
2021/11/24 03:30:45;;;;;;;;;;;;;;;-144.99;100.00;52541.84;5067881;28;20002;-61
2021/11/24 03:33:11;;;;;;;;;;;;;;;-144.99;100.00;52556.13;5064433;28;20520;-61
2021/11/24 03:35:38;;;;;;;;;;;;;;;-144.99;100.00;52574.47;5068266;28;19989;-58
2021/11/24 03:38:05;;;;;;;;;;;;;;;-144.99;100.00;52578.53;5069754;28;19973;-59
2021/11/24 03:40:33;;;;;;;;;;;;;;;-144.99;100.00;52550.00;5066758;28;19977;-59
2021/11/24 03:43:00;;;;;;;;;;;;;;;-144.99;100.00;52513.31;5068640;28;19993;-59
2021/11/24 03:45:28;;;;;;;;;;;;;;;-144.99;100.00;52517.41;5064357;28;19973;-59
2021/11/24 03:47:56;;;;;;;;;;;;;;;-144.99;100.00;52527.59;5068319;28;20039;-59
2021/11/24 03:50:23;;;;;;;;;;;;;;;-144.99;100.00;52527.59;5068094;28;19992;-59
2021/11/24 03:52:49;;;;;;;;;;;;;;;-144.99;100.00;52560.19;5066432;28;20287;-60
2021/11/24 03:55:17;;;;;;;;;;;;;;;-144.99;100.00;52533.69;5067261;28;20450;-59
2021/11/24 03:57:44;;;;;;;;;;;;;;;-144.99;100.00;52533.69;5064872;28;20016;-59
2021/11/24 04:00:12;;;;;;;;;;;;;;;-144.99;100.00;52490.91;5064926;28;20052;-59
2021/11/24 04:02:38;;;;;;;;;;;;;;;-144.99;100.00;52550.00;5068569;28;20005;-59
2021/11/24 04:05:08;;;;;;;;;;;;;;;-144.99;100.00;52554.09;5070947;28;20114;-59
2021/11/24 04:07:34;;;;;;;;;;;;;;;-144.99;100.00;52566.31;5067377;28;20034;-59
2021/11/24 04:10:01;;;;;;;;;;;;;;;-144.99;100.00;52554.09;5065332;28;19984;-59
2021/11/24 04:12:28;;;;;;;;;;;;;;;-144.99;100.00;52541.84;5069973;28;20360;-59
2021/11/24 04:14:54;;;;;;;;;;;;;;;-144.99;100.00;52558.16;5067127;28;19973;-59
2021/11/24 04:17:21;;;;;;;;;;;;;;;-144.99;100.00;52566.31;5069805;28;19973;-60
2021/11/24 04:19:48;;;;;;;;;;;;;;;-144.99;100.00;52539.81;5065218;28;20356;-61
2021/11/24 04:22:16;;;;;;;;;;;;;;;-144.99;100.00;52537.78;5065276;28;20212;-59
2021/11/24 04:24:42;;;;;;;;;;;;;;;-144.99;100.00;52533.69;5069353;28;20050;-58
2021/11/24 04:27:09;;;;;;;;;;;;;;;-144.99;100.00;52560.19;5066375;28;19977;-59
2021/11/24 04:29:35;;;;;;;;;;;;;;;-144.99;100.00;52505.16;5068300;28;19973;-59
2021/11/24 04:32:02;;;;;;;;;;;;;;;-144.99;100.00;52505.16;5067134;28;19977;-60
2021/11/24 04:34:30;;;;;;;;;;;;;;;-144.99;100.00;52554.09;5065031;28;19997;-59
2021/11/24 04:36:56;;;;;;;;;;;;;;;-144.99;100.00;52505.16;5070118;28;19989;-60
2021/11/24 04:39:24;;;;;;;;;;;;;;;-144.99;100.00;52545.94;5063681;28;19974;-58
2021/11/24 04:41:50;;;;;;;;;;;;;;;-144.99;100.00;52554.09;5070294;28;20023;-59
2021/11/24 04:44:17;;;;;;;;;;;;;;;-144.99;100.00;52558.16;5067287;28;20046;-58
2021/11/24 04:46:43;;;;;;;;;;;;;;;-144.99;100.00;52525.56;5066556;28;19973;-57
2021/11/24 04:49:10;;;;;;;;;;;;;;;-144.99;100.00;52558.16;5061180;28;20035;-57
2021/11/24 04:51:37;;;;;;;;;;;;;;;-144.99;100.00;52537.78;5067051;28;19977;-58
2021/11/24 04:54:04;;;;;;;;;;;;;;;-144.99;100.00;52521.47;5066011;28;19988;-58
2021/11/24 04:56:32;;;;;;;;;;;;;;;-144.99;100.00;52529.63;5064822;28;19997;-62
2021/11/24 04:59:00;;;;;;;;;;;;;;;-144.99;100.00;52515.34;5063988;28;19995;-63
2021/11/24 05:01:27;;;;;;;;;;;;;;;-144.99;100.00;52541.84;5065982;28;19981;-62
2021/11/24 05:03:54;;;;;;;;;;;;;;;-144.99;100.00;52541.84;5062495;28;19989;-62
2021/11/24 05:06:22;;;;;;;;;;;;;;;-144.99;100.00;52562.25;5065038;28;19984;-60
2021/11/24 05:08:49;;;;;;;;;;;;;;;-144.99;100.00;52582.63;5068350;28;20018;-60
2021/11/24 05:11:16;;;;;;;;;;;;;;;-144.99;100.00;52533.69;5064478;28;20019;-59
2021/11/24 05:13:48;;;;;;;;;;;;;;;-144.99;100.00;52492.94;5064673;28;20071;-61
2021/11/24 05:16:15;;;;;;;;;;;;;;;-144.99;100.00;52554.09;5061136;28;19993;-61
2021/11/24 05:18:45;;;;;;;;;;;;;;;-144.99;100.00;52529.63;5064796;28;20028;-65
2021/11/24 05:21:14;;;;;;;;;;;;;;;-144.99;100.00;52550.00;5065487;28;19973;-64
2021/11/24 05:23:43;;;;;;;;;;;;;;;-144.99;100.00;52558.16;5063680;28;20222;-63
2021/11/24 05:26:10;;;;;;;;;;;;;;;-144.99;100.00;52541.84;5061826;28;20020;-66
2021/11/24 05:28:37;;;;;;;;;;;;;;;-144.99;100.00;52568.34;5062372;28;20038;-63
2021/11/24 05:31:06;;;;;;;;;;;;;;;-144.99;100.00;52509.25;5064199;28;20042;-64
2021/11/24 05:33:32;;;;;;;;;;;;;;;-144.99;100.00;52547.97;5068984;28;20457;-64
2021/11/24 05:35:59;;;;;;;;;;;;;;;-144.99;100.00;52537.78;5061573;28;20016;-63
2021/11/24 05:38:25;;;;;;;;;;;;;;;-144.99;100.00;52545.94;5066032;28;20054;-66
2021/11/24 05:40:52;;;;;;;;;;;;;;;-144.99;100.00;52558.16;5063912;28;19973;-64
2021/11/24 05:43:21;;;;;;;;;;;;;;;-144.99;100.00;52545.94;5066422;28;20076;-64
2021/11/24 05:46:09;;;;;;;;;;;;;;;-144.99;100.00;52513.31;5062417;28;20449;-63
2021/11/24 05:48:37;;;;;;;;;;;;;;;-144.99;100.00;52519.44;5062387;28;20430;-66
2021/11/24 05:51:04;;;;;;;;;;;;;;;-144.99;100.00;52558.16;5064517;28;20005;-67
2021/11/24 05:53:30;;;;;;;;;;;;;;;-144.99;100.00;52570.38;5063009;28;20458;-67
2021/11/24 05:55:58;;;;;;;;;;;;;;;-144.99;100.00;52566.31;5065740;28;20060;-67
2021/11/24 05:58:25;;;;;;;;;;;;;;;-144.99;100.00;52488.84;5063716;28;19973;-67
2021/11/24 06:00:51;;;;;;;;;;;;;;;-144.99;100.00;52525.56;5062532;28;20210;-67
2021/11/24 06:03:18;;;;;;;;;;;;;;;-144.99;100.00;52568.34;5066395;28;20364;-68
2021/11/24 06:05:46;;;;;;;;;;;;;;;-144.99;100.00;52515.34;4366494;28;10000840;-69
2021/11/24 06:08:13;;;;;;;;;;;;;;;-144.99;100.00;52533.69;5059477;28;20429;-70
2021/11/24 06:10:39;;;;;;;;;;;;;;;-144.99;100.00;52537.78;5065164;28;20020;-69
2021/11/24 06:13:06;;;;;;;;;;;;;;;-144.99;100.00;52554.09;5068934;28;20095;-69
2021/11/24 06:15:33;;;;;;;;;;;;;;;-144.99;100.00;52541.84;5066306;28;19985;-70
2021/11/24 06:17:59;;;;;;;;;;;;;;;-144.99;100.00;52505.16;5071851;28;19977;-69
2021/11/24 06:20:26;;;;;;;;;;;;;;;-144.99;100.00;52513.31;5069359;28;19981;-69
2021/11/24 06:22:54;;;;;;;;;;;;;;;-144.99;100.00;52509.25;5069367;28;19959;-68
2021/11/24 06:25:21;;;;;;;;;;;;;;;-144.99;100.00;52541.84;5071306;28;19980;-70
2021/11/24 06:27:47;;;;;;;;;;;;;;;-144.99;100.00;52521.47;5060656;28;20437;-70
2021/11/24 06:30:15;;;;;;;;;;;;;;;-144.99;100.00;52545.94;5064411;28;19973;-70
2021/11/24 06:32:42;;;;;;;;;;;;;;;-144.99;100.00;52545.94;5066917;28;20329;-68
2021/11/24 06:35:09;;;;;;;;;;;;;;;-144.99;100.00;52545.94;5068306;28;19981;-69
2021/11/24 06:37:37;;;;;;;;;;;;;;;-144.99;100.00;52543.91;5066228;28;19993;-68
2021/11/24 06:40:05;;;;;;;;;;;;;;;-144.99;100.00;52554.09;5068291;28;20434;-69
2021/11/24 06:42:32;;;;;;;;;;;;;;;-144.99;100.00;52529.63;5064412;28;19973;-69
2021/11/24 06:44:59;;;;;;;;;;;;;;;-144.99;100.00;52550.00;5066097;28;19977;-69
2021/11/24 06:47:25;;;;;;;;;;;;;;;-144.99;100.00;52607.09;5068508;28;19981;-70
2021/11/24 06:49:52;;;;;;;;;;;;;;;-144.99;100.00;52527.59;5072718;28;19970;-69
2021/11/24 06:52:18;;;;;;;;;;;;;;;-144.99;100.00;52541.84;5066970;28;20139;-69
2021/11/24 06:54:45;;;;;;;;;;;;;;;-144.99;100.00;52541.84;5073308;28;20016;-69
2021/11/24 06:57:13;;;;;;;;;;;;;;;-144.99;100.00;52515.34;5063345;28;20164;-69
2021/11/24 06:59:39;;;;;;;;;;;;;;;-144.99;100.00;52541.84;5060311;28;20494;-70
2021/11/24 07:02:06;;;;;;;;;;;;;;;-144.99;100.00;52566.31;5067231;28;20059;-69
2021/11/24 07:04:32;;;;;;;;;;;;;;;-144.99;100.00;52537.78;5064308;28;20056;-69
2021/11/24 07:06:59;;;;;;;;;;;;;;;-144.99;100.00;52550.00;5071078;28;20068;-68
2021/11/24 07:09:27;;;;;;;;;;;;;;;-144.99;100.00;52541.84;5068308;28;19977;-70
2021/11/24 07:11:54;;;;;;;;;;;;;;;-144.99;100.00;52562.25;5066978;28;19983;-69
2021/11/24 07:14:21;;;;;;;;;;;;;;;-144.99;100.00;52537.78;5070162;28;20024;-69
2021/11/24 07:16:48;;;;;;;;;;;;;;;-144.99;100.00;52570.38;5065268;28;20430;-70
2021/11/24 07:19:16;;;;;;;;;;;;;;;-144.99;100.00;52517.41;5067000;28;19980;-69
2021/11/24 07:21:47;;;;;;;;;;;;;;;-144.99;100.00;52515.34;5069105;28;19980;-69
2021/11/24 07:24:14;;;;;;;;;;;;;;;-144.99;100.00;52562.25;5067678;28;19992;-69
2021/11/24 07:26:40;;;;;;;;;;;;;;;-144.99;100.00;52517.41;5060967;28;19977;-70
2021/11/24 07:29:07;;;;;;;;;;;;;;;-144.99;100.00;52501.09;5061285;28;20012;-72
2021/11/24 07:31:35;;;;;;;;;;;;;;;-144.99;100.00;52552.03;5062679;28;19985;-69
2021/11/24 07:34:01;;;;;;;;;;;;;;;-144.99;100.00;52560.19;5067001;28;19997;-70
2021/11/24 07:36:28;;;;;;;;;;;;;;;-144.99;100.00;52560.19;5067217;28;20493;-69
2021/11/24 07:38:54;;;;;;;;;;;;;;;-144.99;100.00;52541.84;5064578;28;20375;-68
2021/11/24 07:41:21;;;;;;;;;;;;;;;-144.99;100.00;52521.47;5063217;28;20425;-69
2021/11/24 07:43:48;;;;;;;;;;;;;;;-144.99;100.00;52525.56;5064952;28;20484;-69
2021/11/24 07:46:14;;;;;;;;;;;;;;;-144.99;100.00;52550.00;5062038;28;20038;-70
2021/11/24 07:48:42;;;;;;;;;;;;;;;-144.99;100.00;52541.84;5058476;28;20047;-70
2021/11/24 07:51:09;;;;;;;;;;;;;;;-144.99;100.00;52554.09;5064475;28;20030;-68
2021/11/24 07:53:36;;;;;;;;;;;;;;;-144.99;100.00;52554.09;5063029;28;20180;-70
2021/11/24 07:56:02;;;;;;;;;;;;;;;-144.99;100.00;52574.47;5061035;28;20026;-69
2021/11/24 07:58:29;;;;;;;;;;;;;;;-144.99;100.00;52539.81;5063175;28;20515;-70
2021/11/24 08:00:56;;;;;;;;;;;;;;;-144.99;100.00;52570.38;5063275;28;19976;-69
2021/11/24 08:03:23;;;;;;;;;;;;;;;-144.99;100.00;52525.56;5062699;28;20104;-69
2021/11/24 08:05:51;;;;;;;;;;;;;;;-144.99;100.00;52552.03;5068769;28;20023;-70
2021/11/24 08:08:17;;;;;;;;;;;;;;;-144.99;100.00;52594.84;5062265;28;20133;-67
2021/11/24 08:10:44;;;;;;;;;;;;;;;-144.99;100.00;52550.00;5063665;28;19977;-69
2021/11/24 08:13:10;;;;;;;;;;;;;;;-144.99;100.00;52578.53;5064416;28;20047;-69
2021/11/24 08:15:37;;;;;;;;;;;;;;;-144.99;100.00;52566.31;5062229;28;20031;-70
2021/11/24 08:18:03;;;;;;;;;;;;;;;-144.99;100.00;52562.25;5062798;28;19997;-68
2021/11/24 08:20:30;;;;;;;;;;;;;;;-144.99;100.00;52545.94;5067068;28;20099;-70
2021/11/24 08:22:58;;;;;;;;;;;;;;;-144.99;100.00;52547.97;5059776;28;20047;-69
2021/11/24 08:25:24;;;;;;;;;;;;;;;-144.99;100.00;52513.31;5067137;28;20507;-68
2021/11/24 08:27:51;;;;;;;;;;;;;;;-144.99;100.00;52545.94;5055472;28;19981;-70
2021/11/24 08:30:17;;;;;;;;;;;;;;;-144.99;100.00;52484.78;5056241;28;20034;-69
2021/11/24 08:32:44;;;;;;;;;;;;;;;-144.99;100.00;52541.84;5061086;28;20043;-69
2021/11/24 08:35:10;;;;;;;;;;;;;;;-144.99;100.00;52550.00;5067080;28;19980;-69
2021/11/24 08:37:37;;;;;;;;;;;;;;;-144.99;100.00;52529.63;5061739;28;19999;-68
2021/11/24 08:40:06;;;;;;;;;;;;;;;-144.99;100.00;52505.16;5060688;28;20441;-69
2021/11/24 08:42:32;;;;;;;;;;;;;;;-144.99;100.00;52537.78;5065485;28;20038;-69
2021/11/24 08:44:59;;;;;;;;;;;;;;;-144.99;100.00;52545.94;5060758;28;20398;-70
2021/11/24 08:47:26;;;;;;;;;;;;;;;-144.99;100.00;52566.31;5061886;28;19973;-68
2021/11/24 08:49:52;;;;;;;;;;;;;;;-144.99;100.00;52545.94;5063937;28;20357;-69
2021/11/24 08:52:19;;;;;;;;;;;;;;;-144.99;100.00;52529.63;5061995;28;20055;-69
2021/11/24 08:54:45;;;;;;;;;;;;;;;-144.99;100.00;52558.16;5062982;28;19973;-68
2021/11/24 08:57:13;;;;;;;;;;;;;;;-144.99;100.00;52531.66;5067163;28;20005;-68
2021/11/24 08:59:40;;;;;;;;;;;;;;;-144.99;100.00;52541.84;5054926;28;19992;-69
2021/11/24 09:02:07;;;;;;;;;;;;;;;-144.99;100.00;52570.38;5063865;28;20043;-68
2021/11/24 09:04:34;;;;;;;;;;;;;;;-144.99;100.00;52525.56;5061064;28;19997;-70
2021/11/24 09:07:00;;;;;;;;;;;;;;;-144.99;100.00;52494.97;5066141;28;19980;-69
2021/11/24 09:09:27;;;;;;;;;;;;;;;-144.99;100.00;52486.81;5064210;28;19990;-70
2021/11/24 09:11:53;;;;;;;;;;;;;;;-144.99;100.00;52513.31;5066019;28;19981;-70
2021/11/24 09:14:23;;;;;;;;;;;;;;;-144.99;100.00;52517.41;5055443;28;19992;-69
2021/11/24 09:16:50;;;;;;;;;;;;;;;-144.99;100.00;52533.69;5060408;28;20010;-70
2021/11/24 09:19:16;;;;;;;;;;;;;;;-144.99;100.00;52533.69;5072482;28;19980;-69
2021/11/24 09:21:43;;;;;;;;;;;;;;;-144.99;100.00;52533.69;5064911;28;19981;-69
2021/11/24 09:24:13;;;;;;;;;;;;;;;-144.99;100.00;52521.47;5060726;28;20015;-69
2021/11/24 09:26:43;;;;;;;;;;;;;;;-144.99;100.00;52521.47;5058797;28;19985;-70
2021/11/24 09:29:11;;;;;;;;;;;;;;;-144.99;100.00;52545.94;5064922;28;20064;-71
2021/11/24 09:31:39;;;;;;;;;;;;;;;-144.99;100.00;52513.31;5062311;28;20522;-70
2021/11/24 09:34:05;;;;;;;;;;;;;;;-144.99;100.00;52525.56;5062446;28;20180;-69
2021/11/24 09:36:34;;;;;;;;;;;;;;;-144.99;100.00;52521.47;5063370;28;20044;-69
2021/11/24 09:39:01;;;;;;;;;;;;;;;-144.99;100.00;52501.09;5061799;28;19984;-70
2021/11/24 09:41:29;;;;;;;;;;;;;;;-144.99;100.00;52497.00;5062616;28;20043;-69
2021/11/24 09:43:56;;;;;;;;;;;;;;;-144.99;100.00;52476.63;5059998;28;20403;-69
2021/11/24 09:46:25;;;;;;;;;;;;;;;-144.99;100.00;52513.31;5065653;28;19981;-69
2021/11/24 09:48:53;;;;;;;;;;;;;;;-144.99;100.00;52476.63;5064943;28;20035;-69
2021/11/24 09:51:20;;;;;;;;;;;;;;;-144.99;100.00;52480.72;5061844;28;20035;-65
2021/11/24 09:53:49;;;;;;;;;;;;;;;-144.99;100.00;52505.16;5060913;28;20042;-66
2021/11/24 09:56:15;;;;;;;;;;;;;;;-144.99;100.00;52488.84;5063312;28;19980;-66
2021/11/24 09:58:42;;;;;;;;;;;;;;;-144.99;98.37;52525.56;5059712;28;20157;-66
2021/11/24 10:01:08;;;;;;;;;;;;;;;-144.99;98.27;52562.25;5060072;28;20587;-66
2021/11/24 10:03:35;;;;;;;;;;;;;;;-144.99;97.87;52456.25;5061615;28;19996;-66
2021/11/24 10:06:03;;;;;;;;;;;;;;;-144.99;100.00;52505.16;5059660;28;20388;-65
2021/11/24 10:08:32;;;;;;;;;;;;;;;-144.99;100.00;52513.31;5064897;28;20400;-66
2021/11/24 10:10:59;;;;;;;;;;;;;;;-144.99;100.00;52529.63;5055201;28;20361;-66
2021/11/24 10:13:26;;;;;;;;;;;;;;;-144.99;100.00;52541.84;5061774;28;19996;-66
2021/11/24 10:15:55;;;;;;;;;;;;;;;-144.99;100.00;52545.94;5060155;28;19973;-66
2021/11/24 10:18:24;;;;;;;;;;;;;;;-144.99;100.00;52503.13;5065575;28;20040;-66
2021/11/24 10:20:53;;;;;;;;;;;;;;;-144.99;100.00;52529.63;5065861;28;20072;-66
2021/11/24 10:23:22;;;;;;;;;;;;;;;-144.99;100.00;52464.41;5059643;28;20079;-66
2021/11/24 10:25:48;;;;;;;;;;;;;;;-144.99;100.00;52509.25;5063855;28;19981;-65
2021/11/24 10:28:24;;;;;;;;;;;;;;;-144.99;100.00;52509.25;5059250;28;19981;-65
2021/11/24 10:30:54;;;;;;;;;;;;;;;-144.99;100.00;52527.59;5060616;28;20115;-65
2021/11/24 10:33:22;;;;;;;;;;;;;;;-144.99;100.00;52505.16;5060176;28;19989;-66
2021/11/24 10:36:02;;;;;;;;;;;;;;;-144.99;100.00;52497.00;5062273;28;19977;-66
2021/11/24 10:38:37;;;;;;;;;;;;;;;-144.99;100.00;52480.72;5062124;28;19996;-65
2021/11/24 10:41:04;;;;;;;;;;;;;;;-144.99;100.00;52509.25;5060971;28;20500;-65
2021/11/24 10:43:40;;;;;;;;;;;;;;;-144.99;100.00;52499.06;5059482;28;19997;-65
2021/11/24 10:46:07;;;;;;;;;;;;;;;-144.99;100.00;52529.63;5062828;28;20020;-65
2021/11/24 10:48:33;;;;;;;;;;;;;;;-144.99;100.00;52513.31;5063294;28;19980;-65
2021/11/24 10:51:02;;;;;;;;;;;;;;;-144.99;100.00;52525.56;5060800;28;20093;-65
2021/11/24 10:53:30;;;;;;;;;;;;;;;-144.99;100.00;52513.31;5060633;28;20414;-65
2021/11/24 10:56:06;;;;;;;;;;;;;;;-144.99;100.00;52497.00;5062411;28;19987;-65
2021/11/24 10:58:37;;;;;;;;;;;;;;;-144.99;100.00;52525.56;5068762;28;20095;-65
2021/11/24 11:01:04;;;;;;;;;;;;;;;-144.99;100.00;52554.09;5061070;28;20072;-64
2021/11/24 11:03:33;;;;;;;;;;;;;;;-144.99;100.00;52521.47;5068781;28;20074;-65
2021/11/24 11:06:00;;;;;;;;;;;;;;;-144.99;100.00;52513.31;5063285;28;20011;-65
2021/11/24 11:08:26;;;;;;;;;;;;;;;-144.99;100.00;52545.94;5066716;28;20261;-65
2021/11/24 11:10:57;;;;;;;;;;;;;;;-144.99;100.00;52541.84;5058873;28;19995;-65
2021/11/24 11:13:30;;;;;;;;;;;;;;;-144.99;100.00;52527.59;5064441;28;19992;-65
2021/11/24 11:15:57;;;;;;;;;;;;;;;-144.99;100.00;52558.16;5065557;28;19940;-65
2021/11/24 11:18:26;;;;;;;;;;;;;;;-144.99;100.00;52497.00;5063014;28;20008;-65
2021/11/24 11:20:53;;;;;;;;;;;;;;;-144.99;100.00;52533.69;5065232;28;20030;-65
2021/11/24 11:23:21;;;;;;;;;;;;;;;-144.99;100.00;52537.78;5066416;28;20473;-65
2021/11/24 11:25:49;;;;;;;;;;;;;;;-144.99;100.00;52547.97;5064286;28;20063;-68
2021/11/24 11:28:18;;;;;;;;;;;;;;;-144.99;99.94;52527.59;5060677;28;20461;-66
2021/11/24 11:30:46;;;;;;;;;;;;;;;-144.99;98.51;52547.97;5061478;28;20024;-66
2021/11/24 11:33:14;;;;;;;;;;;;;;;-144.99;98.72;52511.28;5064926;28;19992;-65
2021/11/24 11:35:41;;;;;;;;;;;;;;;-144.99;98.63;52509.25;5060821;28;19984;-65
2021/11/24 11:38:08;;;;;;;;;;;;;;;-144.99;98.83;52529.63;5064013;28;19973;-66
2021/11/24 11:40:35;;;;;;;;;;;;;;;-144.99;99.15;52488.84;5064939;28;19985;-66
2021/11/24 11:43:03;;;;;;;;;;;;;;;-144.99;99.24;52537.78;5069159;28;20019;-66
2021/11/24 11:45:32;;;;;;;;;;;;;;;-144.99;98.92;52517.41;5068554;28;20453;-66
2021/11/24 11:48:00;;;;;;;;;;;;;;;-144.99;99.12;52539.81;5067185;28;20005;-65
2021/11/24 11:50:45;;;;;;;;;;;;;;;-144.99;99.71;52543.91;5067695;28;19977;-65
2021/11/24 11:53:12;;;;;;;;;;;;;;;-144.99;99.01;52582.63;5068308;28;20475;-65
2021/11/24 11:55:39;;;;;;;;;;;;;;;-144.99;99.20;52552.03;5068200;28;20082;-65
2021/11/24 12:10:19;;;;;;;;;;;;;;;-144.99;98.23;52521.47;5064246;28;20460;-65
2021/11/24 12:15:27;;;;;;;;;;;;;;;-144.99;97.94;52525.56;5850194;22;20456;-76
2021/11/24 12:17:57;;;;;;;;;;;;;;;-144.99;97.17;52527.59;5042297;28;19993;-76
2021/11/24 12:20:54;;;;;;;;;;;;;;;-144.99;95.99;52533.69;5051837;28;19973;-80
2021/11/24 12:23:23;;;;;;;;;;;;;;;-144.99;94.75;52529.63;5056066;28;19985;-80
2021/11/24 12:25:52;;;;;;;;;;;;;;;-144.99;94.76;52505.16;5046244;28;19993;-77
2021/11/24 12:28:20;;;;;;;;;;;;;;;-144.99;94.54;52529.63;5036024;28;19977;-76
2021/11/24 12:33:24;;;;;;;;;;;;;;;-144.99;95.20;52517.41;6119328;22;20782;-75
2021/11/24 12:35:52;;;;;;;;;;;;;;;-144.99;95.21;52550.00;5015490;28;20059;-76